createdAt,value
2019-01-02T00:01:01.837Z,3.72
2019-01-02T00:03:28.562Z,3.75
2019-01-02T00:05:56.001Z,4.40
2019-01-02T00:08:22.827Z,4.22
2019-01-02T00:10:49.557Z,3.70
2019-01-02T00:13:16.348Z,4.20
2019-01-02T00:15:43.236Z,4.20
2019-01-02T00:18:09.972Z,3.77
2019-01-02T00:20:36.688Z,4.17
2019-01-02T00:23:03.559Z,4.25
2019-01-02T00:25:30.287Z,3.52
2019-01-02T00:27:57.799Z,4.12
2019-01-02T00:30:25.884Z,4.30
2019-01-02T00:32:53.127Z,4.17
2019-01-02T00:35:19.876Z,3.75
2019-01-02T00:37:47.616Z,4.08
2019-01-02T00:40:14.391Z,4.28
2019-01-02T00:42:41.713Z,5.10
2019-01-02T00:45:08.451Z,4.20
2019-01-02T00:47:35.875Z,3.92
2019-01-02T00:50:03.640Z,3.77
2019-01-02T00:52:30.661Z,3.85
2019-01-02T00:54:57.388Z,3.90
2019-01-02T00:57:24.811Z,4.22
2019-01-02T00:59:51.525Z,3.50
2019-01-02T01:02:18.983Z,3.90
2019-01-02T01:04:45.808Z,4.05
2019-01-02T01:07:13.035Z,3.90
2019-01-02T01:09:39.920Z,4.35
2019-01-02T01:12:06.841Z,3.70
2019-01-02T01:14:33.563Z,3.83
2019-01-02T01:17:00.287Z,3.80
2019-01-02T01:19:27.016Z,4.62
2019-01-02T01:21:53.733Z,3.87
2019-01-02T01:24:20.490Z,3.92
2019-01-02T01:26:47.232Z,3.83
2019-01-02T01:29:13.952Z,3.98
2019-01-02T01:31:40.988Z,3.70
2019-01-02T01:34:07.717Z,4.85
2019-01-02T01:36:34.444Z,3.95
2019-01-02T01:39:01.177Z,3.98
2019-01-02T01:41:27.899Z,3.98
2019-01-02T01:43:55.024Z,3.47
2019-01-02T01:46:21.751Z,4.10
2019-01-02T01:48:49.176Z,3.85
2019-01-02T01:51:15.909Z,3.65
2019-01-02T01:53:42.625Z,3.83
2019-01-02T01:56:09.532Z,3.60
2019-01-02T01:58:36.251Z,3.60
2019-01-02T02:01:03.617Z,5.08
2019-01-02T02:03:30.345Z,3.17
2019-01-02T02:05:57.056Z,3.47
2019-01-02T02:08:24.297Z,3.60
2019-01-02T02:10:51.003Z,4.22
2019-01-02T02:13:18.523Z,3.52
2019-01-02T02:15:45.279Z,3.90
2019-01-02T02:18:12.157Z,3.40
2019-01-02T02:20:39.212Z,4.03
2019-01-02T02:23:06.031Z,3.50
2019-01-02T02:25:33.367Z,3.52
2019-01-02T02:28:00.205Z,3.83
2019-01-02T02:30:27.661Z,3.52
2019-01-02T02:32:54.380Z,3.45
2019-01-02T02:35:21.100Z,3.60
2019-01-02T02:37:47.884Z,4.28
2019-01-02T02:40:14.854Z,3.87
2019-01-02T02:42:41.680Z,4.10
2019-01-02T02:45:10.352Z,4.00
2019-01-02T02:47:37.482Z,3.90
2019-01-02T02:50:06.740Z,3.52
2019-01-02T02:52:33.470Z,3.37
2019-01-02T02:55:00.238Z,3.60
2019-01-02T02:57:27.184Z,4.53
2019-01-02T02:59:53.916Z,3.30
2019-01-02T03:02:20.667Z,4.00
2019-01-02T03:04:47.447Z,3.45
2019-01-02T03:07:14.685Z,4.30
2019-01-02T03:09:41.715Z,3.45
2019-01-02T03:12:08.640Z,4.08
2019-01-02T03:14:35.354Z,3.60
2019-01-02T03:17:02.075Z,3.98
2019-01-02T03:19:29.116Z,3.95
2019-01-02T03:21:56.643Z,3.95
2019-01-02T03:24:23.571Z,4.30
2019-01-02T03:26:50.387Z,4.15
2019-01-02T03:29:17.204Z,3.87
2019-01-02T03:31:44.330Z,4.00
2019-01-02T03:34:11.748Z,4.33
2019-01-02T03:36:38.460Z,3.55
2019-01-02T03:39:06.391Z,4.42
2019-01-02T03:41:33.216Z,3.83
2019-01-02T03:43:59.959Z,3.65
2019-01-02T03:46:26.676Z,4.55
2019-01-02T03:48:53.415Z,3.70
2019-01-02T03:51:20.147Z,3.60
2019-01-02T03:53:46.973Z,4.22
2019-01-02T03:56:13.777Z,3.90
2019-01-02T03:58:40.491Z,3.70
2019-01-02T04:01:07.317Z,4.12
2019-01-02T04:03:34.138Z,4.60
2019-01-02T04:06:00.873Z,4.25
2019-01-02T04:08:27.747Z,4.50
2019-01-02T04:10:55.015Z,4.00
2019-01-02T04:13:23.146Z,4.37
2019-01-02T04:15:50.369Z,4.10
2019-01-02T04:18:17.096Z,4.72
2019-01-02T04:20:43.824Z,3.95
2019-01-02T04:23:10.864Z,3.52
2019-01-02T04:25:37.579Z,4.22
2019-01-02T04:28:04.745Z,3.80
2019-01-02T04:30:31.496Z,4.30
2019-01-02T04:32:58.191Z,3.45
2019-01-02T04:35:24.923Z,3.83
2019-01-02T04:37:51.635Z,4.53
2019-01-02T04:40:18.751Z,4.72
2019-01-02T04:42:45.488Z,3.92
2019-01-02T04:45:12.296Z,4.10
2019-01-02T04:47:39.320Z,4.20
2019-01-02T04:50:08.375Z,3.58
2019-01-02T04:52:35.097Z,4.25
2019-01-02T04:55:02.061Z,3.83
2019-01-02T04:57:28.783Z,3.83
2019-01-02T04:59:55.500Z,3.62
2019-01-02T05:02:22.279Z,3.50
2019-01-02T05:04:49.010Z,4.22
2019-01-02T05:07:15.815Z,3.80
2019-01-02T05:09:42.536Z,3.40
2019-01-02T05:12:09.249Z,4.20
2019-01-02T05:14:35.979Z,3.58
2019-01-02T05:17:02.787Z,3.80
2019-01-02T05:19:29.511Z,3.92
2019-01-02T05:21:56.252Z,4.15
2019-01-02T05:24:22.972Z,3.98
2019-01-02T05:26:49.707Z,4.35
2019-01-02T05:29:16.544Z,4.08
2019-01-02T05:31:43.686Z,5.00
2019-01-02T05:34:10.403Z,4.90
2019-01-02T05:36:37.117Z,3.40
2019-01-02T05:39:05.216Z,3.90
2019-01-02T05:41:31.944Z,3.45
2019-01-02T05:43:58.778Z,3.90
2019-01-02T05:46:25.493Z,4.00
2019-01-02T05:48:52.312Z,4.37
2019-01-02T05:51:19.112Z,3.92
2019-01-02T05:53:45.876Z,4.30
2019-01-02T05:56:13.132Z,4.45
2019-01-02T05:58:39.858Z,3.65
2019-01-02T06:01:06.736Z,4.05
2019-01-02T06:03:33.465Z,4.15
2019-01-02T06:06:00.199Z,3.80
2019-01-02T06:08:26.927Z,3.92
2019-01-02T06:10:53.669Z,3.87
2019-01-02T06:13:20.483Z,3.50
2019-01-02T06:15:47.295Z,4.20
2019-01-02T06:18:14.007Z,4.08
2019-01-02T06:20:40.743Z,4.83
2019-01-02T06:23:07.455Z,3.62
2019-01-02T06:25:34.172Z,4.08
2019-01-02T06:28:00.883Z,3.40
2019-01-02T06:30:27.619Z,3.95
2019-01-02T06:32:54.451Z,3.83
2019-01-02T06:35:21.174Z,3.80
2019-01-02T06:37:47.894Z,3.55
2019-01-02T06:40:14.626Z,4.12
2019-01-02T06:42:41.456Z,3.20
2019-01-02T06:45:10.639Z,3.50
2019-01-02T06:47:37.464Z,3.62
2019-01-02T06:50:07.513Z,3.25
2019-01-02T06:52:34.232Z,3.87
2019-01-02T06:55:00.979Z,3.22
2019-01-02T06:57:27.807Z,3.27
2019-01-02T06:59:54.563Z,2.98
2019-01-02T07:02:21.379Z,3.10
2019-01-02T07:04:48.113Z,3.77
2019-01-02T07:07:14.859Z,3.30
2019-01-02T07:09:41.591Z,3.35
2019-01-02T07:12:08.360Z,3.22
2019-01-02T07:14:35.061Z,3.92
2019-01-02T07:17:01.800Z,3.40
2019-01-02T07:19:28.864Z,4.37
2019-01-02T07:21:55.576Z,3.62
2019-01-02T07:24:22.559Z,3.98
2019-01-02T07:26:49.279Z,4.17
2019-01-02T07:29:16.000Z,3.30
2019-01-02T07:31:42.727Z,4.05
2019-01-02T07:34:21.824Z,3.37
2019-01-02T07:37:30.172Z,3.52
2019-01-02T07:40:42.056Z,3.72
2019-01-02T07:43:38.373Z,3.62
2019-01-02T07:46:33.580Z,3.05
2019-01-02T07:49:36.379Z,4.00
2019-01-02T07:52:29.112Z,3.15
2019-01-02T07:55:24.232Z,3.65
2019-01-02T07:58:31.608Z,3.30
2019-01-02T08:01:42.488Z,3.58
2019-01-02T08:04:44.099Z,3.55
2019-01-02T08:07:48.512Z,3.33
2019-01-02T08:10:51.776Z,3.27
2019-01-02T08:13:49.281Z,3.62
2019-01-02T08:16:56.266Z,3.77
2019-01-02T08:19:51.624Z,4.10
2019-01-02T08:23:06.660Z,3.72
2019-01-02T08:26:08.047Z,3.45
2019-01-02T08:29:04.550Z,4.20
2019-01-02T08:31:59.077Z,3.60
2019-01-02T08:34:50.104Z,3.40
2019-01-02T08:38:01.927Z,4.08
2019-01-02T08:41:16.628Z,3.60
2019-01-02T08:44:28.371Z,4.58
2019-01-02T08:47:15.973Z,3.87
2019-01-02T08:50:43.092Z,3.90
2019-01-02T08:53:54.007Z,3.75
2019-01-02T08:57:11.842Z,3.98
2019-01-02T09:00:32.883Z,4.15
2019-01-02T09:03:20.825Z,3.33
2019-01-02T09:06:37.039Z,3.22
2019-01-02T09:09:43.911Z,3.60
2019-01-02T09:12:42.772Z,3.87
2019-01-02T09:15:27.844Z,3.52
2019-01-02T09:18:19.477Z,3.47
2019-01-02T09:21:17.739Z,3.50
2019-01-02T09:24:26.269Z,3.55
2019-01-02T09:27:38.512Z,3.12
2019-01-02T09:30:44.608Z,2.77
2019-01-02T09:33:42.498Z,3.15
2019-01-02T09:36:58.051Z,3.37
2019-01-02T09:39:57.483Z,3.33
2019-01-02T09:43:08.148Z,3.43
2019-01-02T09:46:23.396Z,3.07
2019-01-02T09:49:25.305Z,2.70
2019-01-02T09:52:32.689Z,2.33
2019-01-02T09:55:17.055Z,3.02
2019-01-02T09:58:08.057Z,3.33
2019-01-02T10:01:06.296Z,2.77
2019-01-02T10:03:49.883Z,2.70
2019-01-02T10:06:59.903Z,2.90
2019-01-02T10:10:06.655Z,2.63
2019-01-02T10:13:10.627Z,2.72
2019-01-02T10:16:18.560Z,3.57
2019-01-02T10:19:12.607Z,3.20
2019-01-02T10:21:53.300Z,2.67
2019-01-02T10:25:06.855Z,2.60
2019-01-02T10:28:20.351Z,2.90
2019-01-02T10:31:31.060Z,3.17
2019-01-02T10:34:17.506Z,3.80
2019-01-02T10:37:11.595Z,2.93
2019-01-02T10:40:16.247Z,3.33
2019-01-02T10:43:26.392Z,3.27
2019-01-02T10:46:17.295Z,3.13
2019-01-02T10:49:25.364Z,2.80
2019-01-02T10:52:41.788Z,3.47
2019-01-02T10:55:46.328Z,3.17
2019-01-02T10:59:19.708Z,2.90
2019-01-02T11:02:07.792Z,3.00
2019-01-02T11:05:03.605Z,3.27
2019-01-02T11:08:02.755Z,3.13
2019-01-02T11:10:51.661Z,2.77
2019-01-02T11:13:53.064Z,3.10
2019-01-02T11:16:41.147Z,3.40
2019-01-02T11:19:45.067Z,3.27
2019-01-02T11:22:49.707Z,3.73
2019-01-02T11:25:34.056Z,2.97
2019-01-02T11:28:33.592Z,3.50
2019-01-02T11:31:38.383Z,2.70
2019-01-02T11:35:14.631Z,3.23
2019-01-02T11:38:10.560Z,3.47
2019-01-02T11:41:06.403Z,3.40
2019-01-02T11:44:21.367Z,3.40
2019-01-02T11:46:47.071Z,3.77
2019-01-02T11:49:13.783Z,3.57
2019-01-02T11:51:40.508Z,3.30
2019-01-02T11:54:07.229Z,3.60
2019-01-02T11:56:33.950Z,3.27
2019-01-02T11:59:00.675Z,3.50
2019-01-02T12:01:27.518Z,3.27
2019-01-02T12:03:54.344Z,4.30
2019-01-02T12:06:21.192Z,3.53
2019-01-02T12:08:48.252Z,4.07
2019-01-02T12:11:14.984Z,3.30
2019-01-02T12:13:41.703Z,3.47
2019-01-02T12:16:08.439Z,2.80
2019-01-02T12:18:35.555Z,4.20
2019-01-02T12:21:02.295Z,3.40
2019-01-02T12:23:29.032Z,3.50
2019-01-02T12:25:55.820Z,3.20
2019-01-02T12:28:22.649Z,3.53
2019-01-02T12:30:49.391Z,3.63
2019-01-02T12:33:16.129Z,2.90
2019-01-02T12:35:43.279Z,3.50
2019-01-02T12:38:10.003Z,3.70
2019-01-02T12:40:36.720Z,4.27
2019-01-02T12:43:03.480Z,3.57
2019-01-02T12:45:30.279Z,3.83
2019-01-02T12:47:57.097Z,3.23
2019-01-02T12:50:23.923Z,3.40
2019-01-02T12:52:50.656Z,3.60
2019-01-02T12:55:17.389Z,3.23
2019-01-02T12:57:44.206Z,3.70
2019-01-02T13:00:12.473Z,3.97
2019-01-02T13:03:12.639Z,3.07
2019-01-02T13:06:15.156Z,3.90
2019-01-02T13:09:16.679Z,3.87
2019-01-02T13:12:10.185Z,4.20
2019-01-02T13:15:27.755Z,4.00
2019-01-02T13:18:25.817Z,3.73
2019-01-02T13:21:23.160Z,3.50
2019-01-02T13:24:13.407Z,3.67
2019-01-02T13:27:22.492Z,4.17
2019-01-02T13:30:29.262Z,4.03
2019-01-02T13:33:20.737Z,3.07
2019-01-02T13:36:03.858Z,2.97
2019-01-02T13:38:36.331Z,4.47
2019-01-02T13:41:21.084Z,3.70
2019-01-02T13:44:01.815Z,3.20
2019-01-02T13:47:12.948Z,4.10
2019-01-02T13:49:58.177Z,3.93
2019-01-02T13:52:24.904Z,3.37
2019-01-02T13:54:53.848Z,4.50
2019-01-02T13:57:20.588Z,3.60
2019-01-02T13:59:47.333Z,3.97
2019-01-02T14:02:14.054Z,3.83
2019-01-02T14:04:43.552Z,4.80
2019-01-02T14:07:10.384Z,4.73
2019-01-02T14:09:37.110Z,4.30
2019-01-02T14:12:03.944Z,4.78
2019-01-02T14:14:30.767Z,3.90
2019-01-02T14:16:57.495Z,4.60
2019-01-02T14:19:24.212Z,4.37
2019-01-02T14:21:50.927Z,3.97
2019-01-02T14:24:17.651Z,3.83
2019-01-02T14:26:44.408Z,3.53
2019-01-02T14:29:11.143Z,4.00
2019-01-02T14:31:38.679Z,4.40
2019-01-02T14:34:05.712Z,3.97
2019-01-02T14:36:32.423Z,4.40
2019-01-02T14:38:59.144Z,4.00
2019-01-02T14:41:25.868Z,4.70
2019-01-02T14:43:53.052Z,4.00
2019-01-02T14:46:19.787Z,4.57
2019-01-02T14:48:46.518Z,4.63
2019-01-02T14:51:13.256Z,4.43
2019-01-02T14:53:39.996Z,4.00
2019-01-02T14:56:06.832Z,4.47
2019-01-02T14:58:33.554Z,5.30
2019-01-02T15:01:00.276Z,4.00
2019-01-02T15:03:26.991Z,4.17
2019-01-02T15:05:53.728Z,4.37
2019-01-02T15:08:20.456Z,3.87
2019-01-02T15:10:47.182Z,4.17
2019-01-02T15:13:13.909Z,4.30
2019-01-02T15:15:40.633Z,3.97
2019-01-02T15:18:07.477Z,4.13
2019-01-02T15:20:34.209Z,3.93
2019-01-02T15:23:00.973Z,4.07
2019-01-02T15:25:27.676Z,4.17
2019-01-02T15:27:56.850Z,4.27
2019-01-02T15:30:23.936Z,4.20
2019-01-02T15:32:50.672Z,3.80
2019-01-02T15:35:17.431Z,4.67
2019-01-02T15:37:44.180Z,4.00
2019-01-02T15:40:10.897Z,4.53
2019-01-02T15:42:38.092Z,4.25
2019-01-02T15:45:06.009Z,4.67
2019-01-02T15:47:32.757Z,4.55
2019-01-02T15:49:59.553Z,5.00
2019-01-02T15:52:26.293Z,4.75
2019-01-02T15:54:53.152Z,4.25
2019-01-02T15:57:19.885Z,4.83
2019-01-02T15:59:46.625Z,4.40
2019-01-02T16:02:13.347Z,5.30
2019-01-02T16:04:41.182Z,5.30
2019-01-02T16:07:08.087Z,5.08
2019-01-02T16:09:35.063Z,5.00
2019-01-02T16:12:01.795Z,5.78
2019-01-02T16:14:28.519Z,4.53
2019-01-02T16:16:55.273Z,4.75
2019-01-02T16:19:22.005Z,4.70
2019-01-02T16:21:48.727Z,3.95
2019-01-02T16:24:15.451Z,4.05
2019-01-02T16:26:42.187Z,4.65
2019-01-02T16:29:08.923Z,4.25
2019-01-02T16:31:35.663Z,3.62
2019-01-02T16:34:02.391Z,4.80
2019-01-02T16:36:29.113Z,4.22
2019-01-02T16:38:55.851Z,3.98
2019-01-02T16:41:22.575Z,4.95
2019-01-02T16:43:49.297Z,5.60
2019-01-02T16:46:16.109Z,4.95
2019-01-02T16:48:42.879Z,4.30
2019-01-02T16:51:09.700Z,4.30
2019-01-02T16:53:36.441Z,5.10
2019-01-02T16:56:03.532Z,4.17
2019-01-02T16:58:30.265Z,4.65
2019-01-02T17:00:56.967Z,3.83
2019-01-02T17:03:23.691Z,4.65
2019-01-02T17:05:50.544Z,4.00
2019-01-02T17:08:17.263Z,6.22
2019-01-02T17:10:43.989Z,5.25
2019-01-02T17:13:10.715Z,5.62
2019-01-02T17:15:37.448Z,5.00
2019-01-02T17:18:04.321Z,4.45
2019-01-02T17:20:31.044Z,5.60
2019-01-02T17:22:57.756Z,6.42
2019-01-02T17:25:24.532Z,4.95
2019-01-02T17:27:51.252Z,4.42
2019-01-02T17:30:18.676Z,4.45
2019-01-02T17:32:45.472Z,5.10
2019-01-02T17:35:12.204Z,3.90
2019-01-02T17:37:38.929Z,4.17
2019-01-02T17:40:07.009Z,4.37
2019-01-02T17:42:33.739Z,4.35
2019-01-02T17:45:00.481Z,5.15
2019-01-02T17:47:27.237Z,5.12
2019-01-02T17:49:53.965Z,4.17
2019-01-02T17:52:20.694Z,5.85
2019-01-02T17:54:47.419Z,6.42
2019-01-02T17:57:14.233Z,6.40
2019-01-02T17:59:40.976Z,5.80
2019-01-02T18:02:07.699Z,5.50
2019-01-02T18:04:34.532Z,4.70
2019-01-02T18:07:01.261Z,4.70
2019-01-02T18:09:27.987Z,4.70
2019-01-02T18:11:55.520Z,5.35
2019-01-02T18:14:22.259Z,5.05
2019-01-02T18:16:48.991Z,4.42
2019-01-02T18:19:15.716Z,4.60
2019-01-02T18:21:42.457Z,4.40
2019-01-02T18:24:09.225Z,4.90
2019-01-02T18:26:35.951Z,4.67
2019-01-02T18:29:02.785Z,4.92
2019-01-02T18:31:29.519Z,4.75
2019-01-02T18:33:56.251Z,4.65
2019-01-02T18:36:22.979Z,4.85
2019-01-02T18:38:50.047Z,4.87
2019-01-02T18:41:16.769Z,5.17
2019-01-02T18:43:43.493Z,4.67
2019-01-02T18:46:10.243Z,5.00
2019-01-02T18:48:36.972Z,5.08
2019-01-02T18:51:03.708Z,5.22
2019-01-02T18:53:30.431Z,4.75
2019-01-02T18:55:58.764Z,4.72
2019-01-02T18:58:25.920Z,4.72
2019-01-02T19:00:53.076Z,4.42
2019-01-02T19:03:19.879Z,4.80
2019-01-02T19:05:46.954Z,4.50
2019-01-02T19:08:13.669Z,5.40
2019-01-02T19:10:40.440Z,5.65
2019-01-02T19:13:07.223Z,4.85
2019-01-02T19:15:33.950Z,5.42
2019-01-02T19:18:00.669Z,5.00
2019-01-02T19:20:27.388Z,4.83
2019-01-02T19:22:54.111Z,4.75
2019-01-02T19:25:20.822Z,5.35
2019-01-02T19:27:47.539Z,4.78
2019-01-02T19:30:15.098Z,5.35
2019-01-02T19:32:41.904Z,12.07
2019-01-02T19:35:08.627Z,18.60
2019-01-02T19:37:35.713Z,8.75
2019-01-02T19:40:03.311Z,8.85
2019-01-02T19:42:30.040Z,6.37
2019-01-02T19:44:56.746Z,6.95
2019-01-02T19:47:23.476Z,5.10
2019-01-02T19:49:50.184Z,6.45
2019-01-02T19:52:16.912Z,5.65
2019-01-02T19:54:43.647Z,5.15
2019-01-02T19:57:10.723Z,5.90
2019-01-02T19:59:37.462Z,5.28
2019-01-02T20:02:04.196Z,4.87
2019-01-02T20:04:30.917Z,5.40
2019-01-02T20:06:57.648Z,5.62
2019-01-02T20:09:24.376Z,5.20
2019-01-02T20:11:51.213Z,5.22
2019-01-02T20:14:17.943Z,4.90
2019-01-02T20:16:44.665Z,6.30
2019-01-02T20:19:11.645Z,5.53
2019-01-02T20:21:38.372Z,5.17
2019-01-02T20:24:05.095Z,5.00
2019-01-02T20:26:31.971Z,5.30
2019-01-02T20:28:58.860Z,5.33
2019-01-02T20:31:25.587Z,5.17
2019-01-02T20:33:52.315Z,4.72
2019-01-02T20:36:19.039Z,6.15
2019-01-02T20:38:45.873Z,4.67
2019-01-02T20:41:12.596Z,4.65
2019-01-02T20:43:39.319Z,5.78
2019-01-02T20:46:06.144Z,5.47
2019-01-02T20:48:32.887Z,5.05
2019-01-02T20:50:59.601Z,4.72
2019-01-02T20:53:26.340Z,4.37
2019-01-02T20:55:53.075Z,5.10
2019-01-02T20:58:19.799Z,4.92
2019-01-02T21:00:46.635Z,5.58
2019-01-02T21:03:13.364Z,4.87
2019-01-02T21:05:40.108Z,4.95
2019-01-02T21:08:06.824Z,4.90
2019-01-02T21:10:33.559Z,4.85
2019-01-02T21:13:00.271Z,4.78
2019-01-02T21:15:27.009Z,4.70
2019-01-02T21:17:53.849Z,5.25
2019-01-02T21:20:20.681Z,4.83
2019-01-02T21:22:47.397Z,4.53
2019-01-02T21:25:14.120Z,4.75
2019-01-02T21:27:40.832Z,7.40
2019-01-02T21:30:08.472Z,6.53
2019-01-02T21:32:35.212Z,5.75
2019-01-02T21:35:02.067Z,5.20
2019-01-02T21:37:28.912Z,4.93
2019-01-02T21:39:55.724Z,4.67
2019-01-02T21:42:22.448Z,4.63
2019-01-02T21:44:49.277Z,4.70
2019-01-02T21:47:15.999Z,5.03
2019-01-02T21:49:42.727Z,4.30
2019-01-02T21:52:09.443Z,4.67
2019-01-02T21:54:36.169Z,5.40
2019-01-02T21:57:02.886Z,4.72
2019-01-02T21:59:29.621Z,4.80
2019-01-02T22:01:56.330Z,4.40
2019-01-02T22:04:23.061Z,4.85
2019-01-02T22:06:49.790Z,4.72
2019-01-02T22:09:16.612Z,5.07
2019-01-02T22:11:43.327Z,5.33
2019-01-02T22:14:10.551Z,4.73
2019-01-02T22:16:37.292Z,4.75
2019-01-02T22:19:04.007Z,5.05
2019-01-02T22:21:30.759Z,4.53
2019-01-02T22:23:57.504Z,4.70
2019-01-02T22:26:24.216Z,4.97
2019-01-02T22:28:50.930Z,5.20
2019-01-02T22:31:17.652Z,4.37
2019-01-02T22:33:44.396Z,4.47
2019-01-02T22:36:11.140Z,4.50
2019-01-02T22:38:37.876Z,4.62
2019-01-02T22:41:04.595Z,5.65
2019-01-02T22:43:31.318Z,5.00
2019-01-02T22:45:58.531Z,6.03
2019-01-02T22:48:25.255Z,4.85
2019-01-02T22:50:52.147Z,5.20
2019-01-02T22:53:18.982Z,4.58
2019-01-02T22:55:45.708Z,5.15
2019-01-02T22:58:12.520Z,5.13
2019-01-02T23:00:57.573Z,4.60
2019-01-02T23:03:38.344Z,4.75
2019-01-02T23:06:36.016Z,4.80
2019-01-02T23:09:36.504Z,4.77
2019-01-02T23:12:21.564Z,4.53
2019-01-02T23:15:07.948Z,5.45
2019-01-02T23:17:43.860Z,4.60
2019-01-02T23:20:42.076Z,4.97
2019-01-02T23:23:26.824Z,5.37
2019-01-02T23:26:17.604Z,5.60
2019-01-02T23:29:05.861Z,5.28
2019-01-02T23:31:50.828Z,5.03
2019-01-02T23:34:41.055Z,4.83
2019-01-02T23:37:24.536Z,5.00
2019-01-02T23:40:09.503Z,5.60
2019-01-02T23:43:11.003Z,5.33
2019-01-02T23:45:56.288Z,5.65
2019-01-02T23:48:38.956Z,5.08
2019-01-02T23:51:24.052Z,5.28
2019-01-02T23:54:08.818Z,4.90
2019-01-02T23:57:01.742Z,5.37
2019-01-02T23:59:42.299Z,4.80
